createdAt,value
2022-12-05T00:00:14.111Z,29
2022-12-05T00:01:16.767Z,30
2022-12-05T00:02:19.369Z,30
2022-12-05T00:03:22.379Z,29
2022-12-05T00:04:25.695Z,29
2022-12-05T00:05:29.548Z,28
2022-12-05T00:06:32.010Z,29
2022-12-05T00:07:34.681Z,29
2022-12-05T00:08:37.490Z,28
2022-12-05T00:09:40.132Z,29
2022-12-05T00:10:42.705Z,27
2022-12-05T00:11:47.795Z,29
2022-12-05T00:12:50.438Z,28
2022-12-05T00:13:53.002Z,29
2022-12-05T00:14:55.647Z,27
2022-12-05T00:15:58.301Z,29
2022-12-05T00:17:03.398Z,27
2022-12-05T00:18:06.385Z,29
2022-12-05T00:19:08.988Z,28
2022-12-05T00:20:11.663Z,27
2022-12-05T00:21:14.705Z,28
2022-12-05T00:22:22.831Z,28
2022-12-05T00:23:25.168Z,28
2022-12-05T00:24:30.542Z,30
2022-12-05T00:25:32.957Z,30
2022-12-05T00:26:35.601Z,30
2022-12-05T00:27:41.762Z,30
2022-12-05T00:28:46.123Z,30
2022-12-05T00:29:48.757Z,29
2022-12-05T00:30:51.361Z,28
2022-12-05T00:31:54.044Z,28
2022-12-05T00:32:57.972Z,28
2022-12-05T00:34:00.459Z,27
2022-12-05T00:35:03.136Z,26
2022-12-05T00:36:07.328Z,26
2022-12-05T00:37:13.301Z,26
2022-12-05T00:38:15.623Z,26
2022-12-05T00:39:21.752Z,24
2022-12-05T00:40:25.599Z,25
2022-12-05T00:41:28.064Z,25
2022-12-05T00:42:32.169Z,26
2022-12-05T00:43:34.834Z,25
2022-12-05T00:44:37.525Z,25
2022-12-05T00:45:40.287Z,25
2022-12-05T00:46:43.114Z,25
2022-12-05T00:47:45.743Z,24
2022-12-05T00:48:48.358Z,24
2022-12-05T00:49:51.070Z,24
2022-12-05T00:50:53.725Z,24
2022-12-05T00:51:56.387Z,25
2022-12-05T00:52:58.994Z,26
2022-12-05T00:54:01.593Z,30
2022-12-05T00:55:04.223Z,30
2022-12-05T00:56:06.799Z,30
2022-12-05T00:57:09.582Z,31
2022-12-05T00:58:12.123Z,30
2022-12-05T00:59:14.736Z,30
2022-12-05T01:00:17.920Z,29
2022-12-05T01:01:20.545Z,29
2022-12-05T01:02:23.617Z,27
2022-12-05T01:03:26.255Z,27
2022-12-05T01:04:29.086Z,27
2022-12-05T01:05:31.750Z,27
2022-12-05T01:06:34.429Z,28
2022-12-05T01:07:41.872Z,26
2022-12-05T01:08:46.182Z,25
2022-12-05T01:09:48.654Z,25
2022-12-05T01:10:51.227Z,24
2022-12-05T01:11:53.844Z,24
2022-12-05T01:12:56.647Z,25
2022-12-05T01:13:59.265Z,24
2022-12-05T01:15:02.907Z,23
2022-12-05T01:16:08.223Z,24
2022-12-05T01:17:10.693Z,24
2022-12-05T01:18:13.737Z,23
2022-12-05T01:19:16.315Z,25
2022-12-05T01:20:18.985Z,24
2022-12-05T01:21:21.568Z,23
2022-12-05T01:22:24.169Z,23
2022-12-05T01:23:28.354Z,23
2022-12-05T01:24:32.352Z,23
2022-12-05T01:25:34.785Z,23
2022-12-05T01:26:37.366Z,25
2022-12-05T01:27:40.045Z,23
2022-12-05T01:28:42.612Z,24
2022-12-05T01:29:45.468Z,23
2022-12-05T01:30:48.118Z,23
2022-12-05T01:32:00.888Z,23
2022-12-05T01:33:03.409Z,23
2022-12-05T01:34:07.510Z,23
2022-12-05T01:35:09.995Z,23
2022-12-05T01:36:12.665Z,23
2022-12-05T01:37:16.762Z,23
2022-12-05T01:38:24.875Z,23
2022-12-05T01:39:30.001Z,24
2022-12-05T01:40:35.401Z,23
2022-12-05T01:41:41.204Z,25
2022-12-05T01:42:43.564Z,23
2022-12-05T01:43:46.147Z,23
2022-12-05T01:44:48.773Z,24
2022-12-05T01:45:51.405Z,23
2022-12-05T01:46:54.273Z,23
2022-12-05T01:47:56.854Z,24
2022-12-05T01:48:59.459Z,24
2022-12-05T01:50:03.592Z,23
2022-12-05T01:51:06.133Z,23
2022-12-05T01:52:08.771Z,24
2022-12-05T01:53:11.402Z,23
2022-12-05T01:54:14.094Z,23
2022-12-05T01:55:16.726Z,24
2022-12-05T01:56:19.331Z,23
2022-12-05T01:57:21.917Z,23
2022-12-05T01:58:24.549Z,23
2022-12-05T01:59:27.163Z,23
2022-12-05T02:00:29.760Z,24
2022-12-05T02:01:32.418Z,23
2022-12-05T02:02:35.623Z,24
2022-12-05T02:03:38.568Z,25
2022-12-05T02:04:41.229Z,25
2022-12-05T02:05:45.368Z,25
2022-12-05T02:06:47.802Z,25
2022-12-05T02:07:50.538Z,24
2022-12-05T02:08:53.485Z,24
2022-12-05T02:09:56.396Z,23
2022-12-05T02:11:00.200Z,24
2022-12-05T02:12:02.883Z,24
2022-12-05T02:13:05.479Z,24
2022-12-05T02:14:08.125Z,24
2022-12-05T02:15:10.719Z,23
2022-12-05T02:16:13.434Z,24
2022-12-05T02:17:16.246Z,25
2022-12-05T02:18:19.897Z,23
2022-12-05T02:19:22.445Z,24
2022-12-05T02:20:25.068Z,24
2022-12-05T02:21:27.906Z,23
2022-12-05T02:22:30.508Z,24
2022-12-05T02:23:33.184Z,23
2022-12-05T02:24:35.853Z,23
2022-12-05T02:25:38.505Z,23
2022-12-05T02:26:41.153Z,24
2022-12-05T02:27:43.822Z,23
2022-12-05T02:28:46.507Z,23
2022-12-05T02:29:49.154Z,24
2022-12-05T02:30:51.785Z,23
2022-12-05T02:31:54.557Z,23
2022-12-05T02:32:57.372Z,24
2022-12-05T02:34:00.206Z,23
2022-12-05T02:35:05.297Z,25
2022-12-05T02:36:07.872Z,24
2022-12-05T02:37:10.431Z,24
2022-12-05T02:38:13.019Z,23
2022-12-05T02:39:15.665Z,23
2022-12-05T02:40:23.819Z,23
2022-12-05T02:41:26.134Z,23
2022-12-05T02:42:28.790Z,24
2022-12-05T02:43:31.665Z,23
2022-12-05T02:44:34.318Z,24
2022-12-05T02:45:37.057Z,24
2022-12-05T02:46:39.827Z,23
2022-12-05T02:47:42.466Z,23
2022-12-05T02:48:45.092Z,24
2022-12-05T02:49:47.732Z,23
2022-12-05T02:50:50.319Z,24
2022-12-05T02:51:52.921Z,23
2022-12-05T02:52:55.525Z,23
2022-12-05T02:53:58.173Z,23
2022-12-05T02:55:02.780Z,23
2022-12-05T02:56:05.347Z,23
2022-12-05T02:57:08.018Z,23
2022-12-05T02:58:10.690Z,24
2022-12-05T02:59:16.115Z,25
2022-12-05T03:00:26.029Z,25
2022-12-05T03:01:28.687Z,23
2022-12-05T03:02:31.701Z,23
2022-12-05T03:03:34.308Z,23
2022-12-05T03:04:37.033Z,24
2022-12-05T03:05:40.018Z,23
2022-12-05T03:06:42.648Z,23
2022-12-05T03:07:45.314Z,23
2022-12-05T03:08:48.202Z,23
2022-12-05T03:09:50.824Z,23
2022-12-05T03:10:53.426Z,23
2022-12-05T03:11:56.093Z,23
2022-12-05T03:12:58.704Z,23
2022-12-05T03:14:01.335Z,23
2022-12-05T03:15:03.951Z,23
2022-12-05T03:16:06.551Z,22
2022-12-05T03:17:09.220Z,23
2022-12-05T03:18:12.180Z,22
2022-12-05T03:19:14.835Z,23
2022-12-05T03:20:17.496Z,23
2022-12-05T03:21:20.129Z,22
2022-12-05T03:22:22.771Z,22
2022-12-05T03:23:25.376Z,22
2022-12-05T03:24:28.016Z,23
2022-12-05T03:25:30.637Z,23
2022-12-05T03:26:33.304Z,22
2022-12-05T03:27:35.967Z,22
2022-12-05T03:28:38.600Z,23
2022-12-05T03:29:41.301Z,23
2022-12-05T03:30:43.973Z,23
2022-12-05T03:31:46.781Z,22
2022-12-05T03:32:49.421Z,22
2022-12-05T03:33:52.048Z,22
2022-12-05T03:34:54.703Z,23
2022-12-05T03:35:57.344Z,23
2022-12-05T03:36:59.955Z,23
2022-12-05T03:38:02.563Z,23
2022-12-05T03:39:05.204Z,23
2022-12-05T03:40:07.820Z,22
2022-12-05T03:41:10.420Z,23
2022-12-05T03:42:13.593Z,23
2022-12-05T03:43:16.130Z,23
2022-12-05T03:44:18.800Z,23
2022-12-05T03:45:21.446Z,23
2022-12-05T03:46:24.111Z,21
2022-12-05T03:47:27.040Z,22
2022-12-05T03:48:29.678Z,22
2022-12-05T03:49:34.214Z,22
2022-12-05T03:50:36.902Z,21
2022-12-05T03:51:39.529Z,22
2022-12-05T03:53:11.235Z,22
2022-12-05T03:54:04.051Z,22
2022-12-05T03:55:06.596Z,22
2022-12-05T03:56:09.196Z,23
2022-12-05T03:57:12.790Z,22
2022-12-05T03:58:15.349Z,22
2022-12-05T03:59:17.991Z,23
2022-12-05T04:00:20.626Z,22
2022-12-05T04:01:23.265Z,23
2022-12-05T04:02:26.142Z,22
2022-12-05T04:03:28.859Z,22
2022-12-05T04:04:31.697Z,21
2022-12-05T04:05:44.328Z,22
2022-12-05T04:06:46.548Z,21
2022-12-05T04:07:49.145Z,22
2022-12-05T04:08:51.921Z,22
2022-12-05T04:09:54.520Z,22
2022-12-05T04:10:57.292Z,21
2022-12-05T04:11:59.995Z,22
2022-12-05T04:13:02.607Z,22
2022-12-05T04:14:05.253Z,23
2022-12-05T04:15:07.857Z,22
2022-12-05T04:16:10.571Z,21
2022-12-05T04:17:13.480Z,22
2022-12-05T04:18:16.119Z,21
2022-12-05T04:19:19.296Z,22
2022-12-05T04:20:21.945Z,22
2022-12-05T04:21:24.546Z,22
2022-12-05T04:22:27.174Z,21
2022-12-05T04:23:29.772Z,23
2022-12-05T04:24:32.447Z,23
2022-12-05T04:25:35.059Z,23
2022-12-05T04:26:37.660Z,23
2022-12-05T04:27:40.279Z,23
2022-12-05T04:28:42.956Z,23
2022-12-05T04:29:45.632Z,23
2022-12-05T04:30:48.283Z,23
2022-12-05T04:31:51.115Z,23
2022-12-05T04:32:53.814Z,23
2022-12-05T04:33:56.489Z,22
2022-12-05T04:34:59.114Z,22
2022-12-05T04:36:01.749Z,22
2022-12-05T04:37:04.401Z,23
2022-12-05T04:38:07.030Z,22
2022-12-05T04:39:13.125Z,23
2022-12-05T04:40:20.611Z,23
2022-12-05T04:41:23.226Z,23
2022-12-05T04:42:25.848Z,23
2022-12-05T04:43:29.939Z,22
2022-12-05T04:44:32.483Z,23
2022-12-05T04:45:35.081Z,22
2022-12-05T04:46:37.747Z,22
2022-12-05T04:47:41.635Z,23
2022-12-05T04:48:44.258Z,22
2022-12-05T04:49:53.638Z,22
2022-12-05T04:50:56.237Z,22
2022-12-05T04:51:58.854Z,21
2022-12-05T04:53:01.469Z,22
2022-12-05T04:54:04.107Z,21
2022-12-05T04:55:06.781Z,22
2022-12-05T04:56:09.385Z,23
2022-12-05T04:57:12.063Z,22
2022-12-05T04:58:14.676Z,22
2022-12-05T04:59:17.290Z,23
2022-12-05T05:00:19.900Z,23
2022-12-05T05:01:22.560Z,23
2022-12-05T05:02:25.400Z,23
2022-12-05T05:03:28.223Z,23
2022-12-05T05:04:30.909Z,24
2022-12-05T05:05:34.343Z,23
2022-12-05T05:06:36.996Z,24
2022-12-05T05:07:39.655Z,25
2022-12-05T05:08:42.678Z,24
2022-12-05T05:09:45.325Z,28
2022-12-05T05:10:47.972Z,29
2022-12-05T05:11:50.591Z,29
2022-12-05T05:12:53.246Z,27
2022-12-05T05:13:55.872Z,27
2022-12-05T05:14:58.522Z,26
2022-12-05T05:16:01.233Z,26
2022-12-05T05:17:04.091Z,25
2022-12-05T05:18:06.711Z,23
2022-12-05T05:19:09.363Z,23
2022-12-05T05:20:14.461Z,24
2022-12-05T05:21:22.292Z,24
2022-12-05T05:22:24.882Z,25
2022-12-05T05:23:27.496Z,25
2022-12-05T05:24:30.116Z,23
2022-12-05T05:25:32.745Z,23
2022-12-05T05:26:35.356Z,24
2022-12-05T05:27:37.992Z,23
2022-12-05T05:28:40.652Z,23
2022-12-05T05:29:43.796Z,23
2022-12-05T05:30:46.413Z,23
2022-12-05T05:31:49.300Z,25
2022-12-05T05:32:52.261Z,23
2022-12-05T05:33:54.869Z,23
2022-12-05T05:34:57.545Z,23
2022-12-05T05:36:00.180Z,23
2022-12-05T05:37:02.866Z,23
2022-12-05T05:38:05.500Z,23
2022-12-05T05:39:08.087Z,22
2022-12-05T05:40:11.269Z,22
2022-12-05T05:41:13.978Z,22
2022-12-05T05:42:16.642Z,23
2022-12-05T05:43:19.258Z,22
2022-12-05T05:44:21.866Z,23
2022-12-05T05:45:24.478Z,26
2022-12-05T05:46:27.206Z,26
2022-12-05T05:47:30.070Z,27
2022-12-05T05:48:32.953Z,25
2022-12-05T05:49:35.558Z,24
2022-12-05T05:50:38.193Z,24
2022-12-05T05:51:40.907Z,26
2022-12-05T05:52:43.532Z,27
2022-12-05T05:53:46.226Z,29
2022-12-05T05:54:48.922Z,31
2022-12-05T05:55:52.010Z,34
2022-12-05T05:56:54.622Z,36
2022-12-05T05:57:57.294Z,34
2022-12-05T05:58:59.906Z,30
2022-12-05T06:00:02.556Z,26
2022-12-05T06:01:05.164Z,24
2022-12-05T06:02:29.411Z,23
2022-12-05T06:03:32.380Z,24
2022-12-05T06:04:35.943Z,24
2022-12-05T06:05:38.544Z,24
2022-12-05T06:06:41.163Z,23
2022-12-05T06:07:43.837Z,24
2022-12-05T06:08:46.620Z,23
2022-12-05T06:09:49.813Z,24
2022-12-05T06:10:52.402Z,24
2022-12-05T06:11:55.010Z,24
2022-12-05T06:12:57.630Z,23
2022-12-05T06:14:00.306Z,22
2022-12-05T06:15:02.964Z,22
2022-12-05T06:16:05.634Z,22
2022-12-05T06:17:08.577Z,22
2022-12-05T06:18:11.186Z,22
2022-12-05T06:19:14.117Z,22
2022-12-05T06:20:16.968Z,21
2022-12-05T06:21:19.633Z,22
2022-12-05T06:22:22.291Z,22
2022-12-05T06:23:24.927Z,22
2022-12-05T06:24:27.569Z,22
2022-12-05T06:25:30.214Z,22
2022-12-05T06:26:32.848Z,22
2022-12-05T06:27:35.448Z,22
2022-12-05T06:28:38.048Z,22
2022-12-05T06:29:40.692Z,22
2022-12-05T06:30:43.302Z,21
2022-12-05T06:31:45.952Z,21
2022-12-05T06:32:48.941Z,21
2022-12-05T06:33:51.552Z,22
2022-12-05T06:34:54.192Z,21
2022-12-05T06:35:56.818Z,22
2022-12-05T06:36:59.460Z,22
2022-12-05T06:38:05.287Z,22
2022-12-05T06:39:08.822Z,22
2022-12-05T06:40:11.419Z,22
2022-12-05T06:41:14.108Z,22
2022-12-05T06:42:16.738Z,23
2022-12-05T06:43:19.363Z,25
2022-12-05T06:44:21.995Z,24
2022-12-05T06:45:24.600Z,23
2022-12-05T06:46:27.229Z,22
2022-12-05T06:47:35.604Z,23
2022-12-05T06:48:42.409Z,23
2022-12-05T06:49:44.720Z,23
2022-12-05T06:50:47.325Z,23
2022-12-05T06:51:49.961Z,22
2022-12-05T06:52:52.598Z,23
2022-12-05T06:53:55.305Z,23
2022-12-05T06:55:01.489Z,23
2022-12-05T06:56:03.922Z,24
2022-12-05T06:57:16.551Z,23
2022-12-05T06:58:28.713Z,23
2022-12-05T06:59:30.854Z,23
2022-12-05T07:00:33.395Z,22
2022-12-05T07:01:36.148Z,22
2022-12-05T07:02:39.168Z,22
2022-12-05T07:03:42.026Z,23
2022-12-05T07:04:44.574Z,23
2022-12-05T07:05:47.204Z,24
2022-12-05T07:06:51.189Z,25
2022-12-05T07:07:54.804Z,24
2022-12-05T07:08:57.606Z,25
2022-12-05T07:10:00.507Z,26
2022-12-05T07:11:03.673Z,25
2022-12-05T07:12:06.347Z,25
2022-12-05T07:13:11.935Z,25
2022-12-05T07:15:49.723Z,23
2022-12-05T07:16:52.339Z,23
2022-12-05T07:17:55.233Z,23
2022-12-05T07:19:03.373Z,23
2022-12-05T07:20:05.551Z,23
2022-12-05T07:21:12.421Z,23
2022-12-05T07:22:17.253Z,23
2022-12-05T07:23:19.934Z,23
2022-12-05T07:24:22.579Z,23
2022-12-05T07:25:25.176Z,22
2022-12-05T07:26:27.824Z,23
2022-12-05T07:27:30.409Z,22
2022-12-05T07:28:33.046Z,22
2022-12-05T07:29:35.712Z,23
2022-12-05T07:30:38.332Z,23
2022-12-05T07:31:41.037Z,23
2022-12-05T07:32:44.985Z,23
2022-12-05T07:33:47.570Z,23
2022-12-05T07:34:54.869Z,23
2022-12-05T07:35:58.035Z,23
2022-12-05T07:37:00.633Z,23
2022-12-05T07:38:03.273Z,23
2022-12-05T07:39:09.112Z,23
2022-12-05T07:40:11.669Z,23
2022-12-05T07:41:14.285Z,23
2022-12-05T07:42:16.978Z,23
2022-12-05T07:43:19.605Z,23
2022-12-05T07:44:22.225Z,23
2022-12-05T07:45:24.793Z,23
2022-12-05T07:46:27.544Z,23
2022-12-05T07:47:30.553Z,23
2022-12-05T07:48:33.520Z,24
2022-12-05T07:49:36.163Z,24
2022-12-05T07:50:39.363Z,24
2022-12-05T07:51:41.956Z,25
2022-12-05T07:52:44.599Z,30
2022-12-05T07:53:47.227Z,41
2022-12-05T07:54:49.875Z,40
2022-12-05T07:56:02.545Z,36
2022-12-05T07:57:04.837Z,34
2022-12-05T07:58:07.468Z,32
2022-12-05T07:59:10.077Z,30
2022-12-05T08:00:12.706Z,29
2022-12-05T08:01:15.446Z,29
2022-12-05T08:02:18.570Z,27
2022-12-05T08:03:21.531Z,27
2022-12-05T08:04:24.171Z,25
2022-12-05T08:05:26.757Z,26
2022-12-05T08:06:29.384Z,25
2022-12-05T08:07:34.482Z,24
2022-12-05T08:08:37.407Z,25
2022-12-05T08:09:40.010Z,25
2022-12-05T08:10:42.635Z,25
2022-12-05T08:11:49.655Z,25
2022-12-05T08:12:55.218Z,30
2022-12-05T08:13:57.820Z,26
2022-12-05T08:15:00.486Z,24
2022-12-05T08:16:03.113Z,23
2022-12-05T08:17:05.843Z,23
2022-12-05T08:18:08.804Z,24
2022-12-05T08:19:11.456Z,25
2022-12-05T08:20:14.079Z,23
2022-12-05T08:21:16.730Z,24
2022-12-05T08:22:19.326Z,24
2022-12-05T08:23:21.999Z,25
2022-12-05T08:24:26.289Z,24
2022-12-05T08:25:28.824Z,25
2022-12-05T08:26:31.542Z,25
2022-12-05T08:27:34.177Z,25
2022-12-05T08:28:36.795Z,26
2022-12-05T08:29:39.443Z,25
2022-12-05T08:30:42.154Z,26
2022-12-05T08:31:45.042Z,26
2022-12-05T08:32:47.651Z,25
2022-12-05T08:33:52.060Z,26
2022-12-05T08:35:01.896Z,26
2022-12-05T08:36:04.470Z,26
2022-12-05T08:37:07.079Z,26
2022-12-05T08:38:19.914Z,26
2022-12-05T08:39:22.112Z,28
2022-12-05T08:40:24.938Z,30
2022-12-05T08:41:27.744Z,30
2022-12-05T08:42:30.419Z,29
2022-12-05T08:43:34.077Z,29
2022-12-05T08:44:36.605Z,28
2022-12-05T08:45:39.272Z,28
2022-12-05T08:46:42.185Z,27
2022-12-05T08:47:45.066Z,28
2022-12-05T08:48:47.708Z,30
2022-12-05T08:49:50.358Z,28
2022-12-05T08:50:52.977Z,28
2022-12-05T08:51:55.579Z,29
2022-12-05T08:52:59.606Z,26
2022-12-05T08:54:02.165Z,27
2022-12-05T08:55:04.832Z,28
2022-12-05T08:56:07.511Z,26
2022-12-05T08:57:10.123Z,26
2022-12-05T08:58:13.101Z,27
2022-12-05T08:59:15.729Z,28
2022-12-05T09:00:18.435Z,27
2022-12-05T09:01:21.175Z,27
2022-12-05T09:02:24.452Z,26
2022-12-05T09:03:27.352Z,28
2022-12-05T09:04:30.007Z,26
2022-12-05T09:05:32.911Z,28
2022-12-05T09:06:35.991Z,26
2022-12-05T09:07:38.702Z,27
2022-12-05T09:08:42.088Z,26
2022-12-05T09:09:44.661Z,26
2022-12-05T09:10:47.322Z,27
2022-12-05T09:11:50.170Z,27
2022-12-05T09:12:52.750Z,26
2022-12-05T09:13:55.383Z,27
2022-12-05T09:14:58.253Z,28
2022-12-05T09:16:02.048Z,25
2022-12-05T09:17:05.228Z,25
2022-12-05T09:18:08.499Z,23
2022-12-05T09:19:11.280Z,23
2022-12-05T09:20:14.030Z,22
2022-12-05T09:21:17.595Z,22
2022-12-05T09:22:20.238Z,23
2022-12-05T09:23:22.847Z,22
2022-12-05T09:24:25.460Z,22
2022-12-05T09:25:28.171Z,21
2022-12-05T09:26:30.804Z,22
2022-12-05T09:27:33.453Z,22
2022-12-05T09:28:36.147Z,22
2022-12-05T09:29:38.805Z,20
2022-12-05T09:30:41.713Z,20
2022-12-05T09:31:47.407Z,22
2022-12-05T09:32:49.971Z,22
2022-12-05T09:33:52.606Z,22
2022-12-05T09:34:55.506Z,22
2022-12-05T09:35:59.569Z,20
2022-12-05T09:37:23.081Z,20
2022-12-05T09:38:24.608Z,-1
2022-12-05T09:39:27.177Z,21
2022-12-05T09:40:30.357Z,21
2022-12-05T09:41:32.972Z,22
2022-12-05T09:42:35.621Z,22
2022-12-05T09:43:38.263Z,20
2022-12-05T09:44:41.166Z,20
2022-12-05T09:45:43.784Z,20
2022-12-05T09:46:46.478Z,20
2022-12-05T09:47:49.252Z,18
2022-12-05T09:48:51.926Z,18
2022-12-05T09:49:54.574Z,18
2022-12-05T09:50:57.256Z,18
2022-12-05T09:51:59.910Z,20
2022-12-05T09:53:02.584Z,20
2022-12-05T09:54:05.681Z,18
2022-12-05T09:55:08.314Z,17
2022-12-05T09:56:10.936Z,15
2022-12-05T09:57:13.779Z,18
2022-12-05T09:58:16.442Z,18
2022-12-05T09:59:19.081Z,14
2022-12-05T10:00:21.994Z,14
2022-12-05T10:01:24.863Z,15
2022-12-05T10:02:27.753Z,15
2022-12-05T10:03:30.386Z,14
2022-12-05T10:04:33.142Z,15
2022-12-05T10:05:36.185Z,13
2022-12-05T10:06:38.776Z,17
2022-12-05T10:07:41.725Z,13
2022-12-05T10:08:44.622Z,13
2022-12-05T10:09:47.480Z,14
2022-12-05T10:10:50.121Z,13
2022-12-05T10:11:52.764Z,11
2022-12-05T10:12:55.409Z,14
2022-12-05T10:13:58.122Z,15
2022-12-05T10:15:00.965Z,18
2022-12-05T10:16:03.927Z,18
2022-12-05T10:17:07.367Z,15
2022-12-05T10:18:09.960Z,14
2022-12-05T10:19:12.637Z,15
2022-12-05T10:20:15.315Z,15
2022-12-05T10:21:17.977Z,15
2022-12-05T10:22:20.983Z,18
2022-12-05T10:23:49.227Z,14
2022-12-05T10:24:45.900Z,13
2022-12-05T10:25:48.507Z,13
2022-12-05T10:26:51.123Z,11
2022-12-05T10:27:53.953Z,11
2022-12-05T10:28:56.597Z,10
2022-12-05T10:29:59.217Z,11
2022-12-05T10:31:01.990Z,10
2022-12-05T10:32:05.188Z,10
2022-12-05T10:33:09.628Z,11
2022-12-05T10:34:12.884Z,13
2022-12-05T10:35:15.506Z,13
2022-12-05T10:36:18.288Z,13
2022-12-05T10:37:21.009Z,13
2022-12-05T10:38:23.621Z,13
2022-12-05T10:39:26.270Z,14
2022-12-05T10:40:28.919Z,13
2022-12-05T10:41:31.554Z,13
2022-12-05T10:42:34.180Z,14
2022-12-05T10:43:36.808Z,17
2022-12-05T10:44:39.466Z,14
2022-12-05T10:45:42.286Z,18
2022-12-05T10:46:45.001Z,18
2022-12-05T10:47:47.984Z,18
2022-12-05T10:48:50.650Z,18
2022-12-05T10:49:53.324Z,14
2022-12-05T10:50:55.960Z,17
2022-12-05T10:51:58.611Z,18
2022-12-05T10:53:01.243Z,14
2022-12-05T10:54:03.869Z,14
2022-12-05T10:55:06.467Z,14
2022-12-05T10:56:31.309Z,15
2022-12-05T10:57:30.918Z,15
2022-12-05T10:58:33.513Z,18
2022-12-05T10:59:36.133Z,19
2022-12-05T11:00:39.966Z,19
2022-12-05T11:01:43.661Z,18
2022-12-05T11:02:47.686Z,19
2022-12-05T11:03:50.568Z,20
2022-12-05T11:04:53.252Z,20
2022-12-05T11:05:56.290Z,20
2022-12-05T11:06:58.907Z,15
2022-12-05T11:08:01.600Z,15
2022-12-05T11:09:05.545Z,15
2022-12-05T11:10:09.140Z,18
2022-12-05T11:11:11.749Z,18
2022-12-05T11:12:14.404Z,18
2022-12-05T11:13:17.070Z,18
2022-12-05T11:14:19.757Z,15
2022-12-05T11:15:22.436Z,14
2022-12-05T11:16:25.169Z,14
2022-12-05T11:17:28.321Z,14
2022-12-05T11:18:30.991Z,14
2022-12-05T11:19:33.640Z,14
2022-12-05T11:20:36.332Z,15
2022-12-05T11:21:39.042Z,14
2022-12-05T11:22:44.494Z,19
2022-12-05T11:23:51.141Z,26
2022-12-05T11:24:53.906Z,25
2022-12-05T11:25:56.537Z,23
2022-12-05T11:26:59.183Z,20
2022-12-05T11:28:02.036Z,18
2022-12-05T11:29:04.716Z,14
2022-12-05T11:30:07.369Z,18
2022-12-05T11:31:10.668Z,13
2022-12-05T11:32:13.478Z,13
2022-12-05T11:33:16.101Z,14
2022-12-05T11:34:18.719Z,11
2022-12-05T11:35:21.368Z,13
2022-12-05T11:36:23.959Z,13
2022-12-05T11:37:29.240Z,13
2022-12-05T11:38:31.718Z,13
2022-12-05T11:39:34.349Z,13
2022-12-05T11:40:38.746Z,11
2022-12-05T11:41:41.534Z,10
2022-12-05T11:42:44.201Z,11
2022-12-05T11:43:46.841Z,10
2022-12-05T11:44:49.465Z,10
2022-12-05T11:45:52.091Z,10
2022-12-05T11:46:54.800Z,10
2022-12-05T11:47:57.763Z,11
2022-12-05T11:49:00.430Z,11
2022-12-05T11:50:06.560Z,11
2022-12-05T11:51:09.193Z,11
2022-12-05T11:52:11.780Z,13
2022-12-05T11:53:15.045Z,13
2022-12-05T11:54:30.576Z,15
2022-12-05T11:55:40.678Z,20
2022-12-05T11:56:43.265Z,14
2022-12-05T11:57:50.538Z,13
2022-12-05T11:58:55.065Z,11
2022-12-05T11:59:57.970Z,11
2022-12-05T12:01:02.660Z,11
2022-12-05T12:02:05.242Z,11
2022-12-05T12:03:08.081Z,11
2022-12-05T12:04:10.860Z,11
2022-12-05T12:05:13.480Z,11
2022-12-05T12:06:16.114Z,13
2022-12-05T12:07:18.737Z,13
2022-12-05T12:08:21.495Z,11
2022-12-05T12:09:24.401Z,11
2022-12-05T12:10:27.614Z,11
2022-12-05T12:11:30.254Z,11
2022-12-05T12:12:32.908Z,13
2022-12-05T12:13:35.479Z,13
2022-12-05T12:14:38.102Z,13
2022-12-05T12:15:40.729Z,13
2022-12-05T12:16:43.415Z,13
2022-12-05T12:17:46.322Z,13
2022-12-05T12:18:48.921Z,11
2022-12-05T12:19:51.551Z,13
2022-12-05T12:20:54.162Z,11
2022-12-05T12:21:56.826Z,11
2022-12-05T12:22:59.548Z,14
2022-12-05T12:24:02.965Z,14
2022-12-05T12:25:05.581Z,14
2022-12-05T12:26:08.186Z,14
2022-12-05T12:27:10.827Z,15
2022-12-05T12:28:13.452Z,17
2022-12-05T12:29:16.073Z,18
2022-12-05T12:30:18.681Z,18
2022-12-05T12:31:21.371Z,18
2022-12-05T12:32:24.193Z,15
2022-12-05T12:33:27.520Z,15
2022-12-05T12:34:30.369Z,14
2022-12-05T12:35:33.244Z,13
2022-12-05T12:36:35.849Z,14
2022-12-05T12:37:38.517Z,14
2022-12-05T12:38:46.917Z,14
2022-12-05T12:39:53.874Z,14
2022-12-05T12:40:58.012Z,15
2022-12-05T12:42:00.683Z,13
2022-12-05T12:43:03.278Z,14
2022-12-05T12:44:05.915Z,18
2022-12-05T12:45:08.564Z,17
2022-12-05T12:46:11.572Z,17
2022-12-05T12:47:14.317Z,18
2022-12-05T12:48:16.967Z,18
2022-12-05T12:49:19.582Z,20
2022-12-05T12:50:22.240Z,20
2022-12-05T12:51:24.859Z,20
2022-12-05T12:52:29.089Z,23
2022-12-05T12:53:31.656Z,22
2022-12-05T12:55:01.976Z,23
2022-12-05T12:55:56.149Z,22
2022-12-05T12:56:58.776Z,22
2022-12-05T12:58:01.357Z,22
2022-12-05T12:59:04.020Z,18
2022-12-05T13:00:06.699Z,18
2022-12-05T13:01:10.668Z,18
2022-12-05T13:02:13.578Z,18
2022-12-05T13:03:16.507Z,18
2022-12-05T13:04:19.128Z,18
2022-12-05T13:05:21.791Z,15
2022-12-05T13:06:25.385Z,14
2022-12-05T13:07:27.948Z,15
2022-12-05T13:08:30.583Z,18
2022-12-05T13:09:33.206Z,14
2022-12-05T13:10:35.841Z,17
2022-12-05T13:11:38.726Z,17
2022-12-05T13:12:41.360Z,15
2022-12-05T13:13:44.002Z,18
2022-12-05T13:14:46.705Z,14
2022-12-05T13:15:50.859Z,15
2022-12-05T13:16:53.613Z,18
2022-12-05T13:17:56.481Z,18
2022-12-05T13:18:59.140Z,15
2022-12-05T13:20:11.799Z,15
2022-12-05T13:21:15.013Z,15
2022-12-05T13:22:17.536Z,18
2022-12-05T13:23:20.396Z,18
2022-12-05T13:24:23.009Z,18
2022-12-05T13:25:25.629Z,20
2022-12-05T13:26:28.811Z,20
2022-12-05T13:27:32.963Z,20
2022-12-05T13:28:35.500Z,18
2022-12-05T13:29:40.596Z,18
2022-12-05T13:30:43.068Z,18
2022-12-05T13:31:45.836Z,20
2022-12-05T13:32:49.088Z,20
2022-12-05T13:33:59.474Z,21
2022-12-05T13:35:01.746Z,23
2022-12-05T13:36:04.384Z,23
2022-12-05T13:37:07.000Z,23
2022-12-05T13:38:09.605Z,24
2022-12-05T13:39:13.871Z,23
2022-12-05T13:40:16.304Z,22
2022-12-05T13:41:18.945Z,22
2022-12-05T13:42:21.575Z,20
2022-12-05T13:43:24.252Z,20
2022-12-05T13:44:27.696Z,14
2022-12-05T13:45:30.358Z,14
2022-12-05T13:46:36.049Z,14
2022-12-05T13:47:38.680Z,11
2022-12-05T13:48:41.289Z,13
2022-12-05T13:49:43.951Z,12
2022-12-05T13:50:46.845Z,13
2022-12-05T13:51:53.084Z,14
2022-12-05T13:52:55.445Z,18
2022-12-05T13:53:58.033Z,18
2022-12-05T13:55:00.542Z,14
2022-12-05T13:56:03.173Z,14
2022-12-05T13:57:07.245Z,13
2022-12-05T13:58:13.277Z,13
2022-12-05T13:59:15.657Z,11
2022-12-05T14:00:18.266Z,11
2022-12-05T14:01:20.844Z,11
2022-12-05T14:02:24.124Z,11
2022-12-05T14:03:27.125Z,13
2022-12-05T14:04:29.769Z,13
2022-12-05T14:05:32.317Z,13
2022-12-05T14:06:34.944Z,14
2022-12-05T14:07:38.698Z,14
2022-12-05T14:08:49.111Z,15
2022-12-05T14:09:59.035Z,14
2022-12-05T14:11:02.760Z,14
2022-12-05T14:12:05.344Z,14
2022-12-05T14:13:13.433Z,13
2022-12-05T14:14:16.248Z,13
2022-12-05T14:15:19.034Z,15
2022-12-05T14:16:21.707Z,20
2022-12-05T14:17:24.464Z,18
2022-12-05T14:18:28.292Z,17
2022-12-05T14:19:34.345Z,15
2022-12-05T14:20:37.254Z,18
2022-12-05T14:21:39.881Z,14
2022-12-05T14:22:42.518Z,13
2022-12-05T14:23:45.119Z,11
2022-12-05T14:24:47.739Z,13
2022-12-05T14:25:57.894Z,13
2022-12-05T14:27:08.894Z,11
2022-12-05T14:28:11.611Z,13
2022-12-05T14:29:14.443Z,13
2022-12-05T14:30:17.074Z,13
2022-12-05T14:31:19.816Z,13
2022-12-05T14:32:22.935Z,13
2022-12-05T14:33:25.569Z,14
2022-12-05T14:34:28.225Z,13
2022-12-05T14:35:30.885Z,18
2022-12-05T14:36:33.501Z,15
2022-12-05T14:37:36.120Z,15
2022-12-05T14:38:42.174Z,18
2022-12-05T14:39:44.552Z,15
2022-12-05T14:40:49.709Z,18
2022-12-05T14:41:53.780Z,19
2022-12-05T14:42:56.854Z,20
2022-12-05T14:44:01.611Z,20
2022-12-05T14:45:14.709Z,20
2022-12-05T14:46:17.095Z,21
2022-12-05T14:48:23.469Z,20
2022-12-05T14:49:26.366Z,21
2022-12-05T14:50:40.070Z,21
2022-12-05T14:51:42.362Z,20
2022-12-05T14:52:45.145Z,20
2022-12-05T14:53:48.328Z,19
2022-12-05T14:54:50.927Z,18
2022-12-05T14:55:53.630Z,17
2022-12-05T14:56:56.291Z,14
2022-12-05T14:57:58.910Z,18
2022-12-05T14:59:04.033Z,20
2022-12-05T15:00:06.632Z,20
2022-12-05T15:01:10.847Z,22
2022-12-05T15:02:13.540Z,22
2022-12-05T15:03:16.175Z,23
2022-12-05T15:04:18.842Z,23
2022-12-05T15:05:21.811Z,22